Time;durP1;ratioP1;P1;durP2;ratioP2;P2;SDS_P1;SDS_P2;PMS_P1;PMS_P2;Temp;Humidity;BMP_temperature;BMP_pressure;BME280_temperature;BME280_humidity;BME280_pressure;Samples;Min_cycle;Max_cycle;Signal;HPM_P1;HPM_P2
2021/05/01 00:01:29;;;;;;;48.07;28.73;;;8.40;99.90;;;;;;5012420;28;20385;-57
2021/05/01 00:03:54;;;;;;;49.10;30.10;;;8.40;99.90;;;;;;5011726;28;20392;-50
2021/05/01 00:06:20;;;;;;;49.00;28.60;;;8.40;99.90;;;;;;5011901;28;20397;-51
2021/05/01 00:08:46;;;;;;;51.17;29.23;;;8.40;99.90;;;;;;5012262;28;20875;-50
2021/05/01 00:11:11;;;;;;;52.92;30.70;;;8.30;99.90;;;;;;5012648;28;20436;-50
2021/05/01 00:13:37;;;;;;;48.77;29.07;;;8.30;99.90;;;;;;5012273;28;20408;-50
2021/05/01 00:16:04;;;;;;;45.42;28.48;;;8.30;99.90;;;;;;5012944;28;20392;-52
2021/05/01 00:18:30;;;;;;;49.83;29.20;;;8.40;99.90;;;;;;5012337;28;20864;-51
2021/05/01 00:20:56;;;;;;;52.13;30.25;;;8.40;99.90;;;;;;5012909;28;20428;-50
2021/05/01 00:23:21;;;;;;;49.70;29.60;;;8.30;99.90;;;;;;5012656;28;20393;-50
2021/05/01 00:25:48;;;;;;;51.03;29.52;;;8.30;99.90;;;;;;5011605;28;21051;-52
2021/05/01 00:28:14;;;;;;;50.63;29.73;;;8.30;99.90;;;;;;5013105;28;20381;-50
2021/05/01 00:30:40;;;;;;;52.65;30.52;;;8.50;99.90;;;;;;5011855;28;20385;-52
2021/05/01 00:33:07;;;;;;;53.75;30.75;;;8.40;99.90;;;;;;5012684;28;20892;-58
2021/05/01 00:35:33;;;;;;;51.30;29.88;;;8.40;99.90;;;;;;5012017;28;20396;-50
2021/05/01 00:37:58;;;;;;;48.85;28.88;;;8.40;99.90;;;;;;5012140;28;20455;-50
2021/05/01 00:40:24;;;;;;;47.30;26.93;;;8.20;99.90;;;;;;5012320;28;20853;-53
2021/05/01 00:42:50;;;;;;;47.78;28.75;;;8.30;99.90;;;;;;5011746;28;20388;-50
2021/05/01 00:45:16;;;;;;;49.33;28.73;;;8.40;99.90;;;;;;5012292;28;20891;-50
2021/05/01 00:47:41;;;;;;;50.23;28.53;;;8.40;99.90;;;;;;5011781;28;20720;-50
2021/05/01 00:50:08;;;;;;;49.65;29.75;;;8.40;99.90;;;;;;5012224;28;20451;-50
2021/05/01 00:52:34;;;;;;;50.83;29.27;;;8.30;99.90;;;;;;5011408;28;20412;-50
2021/05/01 00:55:04;;;;;;;50.10;28.58;;;8.30;99.90;;;;;;5012257;28;20872;-50
2021/05/01 00:57:30;;;;;;;52.53;30.63;;;8.40;99.90;;;;;;5010941;28;20393;-61
2021/05/01 00:59:56;;;;;;;50.00;29.00;;;8.40;99.90;;;;;;5011925;28;20380;-50
2021/05/01 01:02:26;;;;;;;51.35;28.58;;;8.40;99.90;;;;;;5011493;28;20884;-57
2021/05/01 01:04:52;;;;;;;50.55;29.40;;;8.50;99.90;;;;;;5011495;28;20373;-50
2021/05/01 01:07:18;;;;;;;52.45;29.90;;;8.50;99.90;;;;;;5011882;28;20373;-50
2021/05/01 01:09:44;;;;;;;54.85;30.98;;;8.50;99.90;;;;;;5011263;28;20403;-50
2021/05/01 01:12:09;;;;;;;54.87;31.67;;;8.50;99.90;;;;;;5011688;28;20420;-50
2021/05/01 01:14:36;;;;;;;54.10;31.85;;;8.40;99.90;;;;;;5009255;28;20393;-50
2021/05/01 01:17:01;;;;;;;57.53;31.67;;;8.40;99.90;;;;;;5011615;28;20407;-51
2021/05/01 01:19:27;;;;;;;54.78;30.90;;;8.50;99.90;;;;;;5011721;28;20449;-61
2021/05/01 01:21:53;;;;;;;56.50;31.95;;;8.60;99.90;;;;;;5011072;28;21196;-50
2021/05/01 01:24:19;;;;;;;55.10;31.98;;;8.50;99.90;;;;;;5011641;28;20381;-51
2021/05/01 01:26:45;;;;;;;55.63;32.13;;;8.70;99.90;;;;;;5010630;28;20431;-49
2021/05/01 01:29:14;;;;;;;50.92;32.15;;;8.60;99.90;;;;;;5011370;28;20373;-49
2021/05/01 01:31:41;;;;;;;55.22;32.28;;;8.60;99.90;;;;;;5010725;28;20385;-52
2021/05/01 01:34:07;;;;;;;55.27;32.97;;;8.60;99.90;;;;;;5011583;28;20415;-51
2021/05/01 01:36:33;;;;;;;55.47;31.33;;;8.60;99.90;;;;;;5009316;28;20388;-51
2021/05/01 01:38:59;;;;;;;51.05;30.67;;;8.60;99.90;;;;;;5011271;28;20397;-50
2021/05/01 01:41:25;;;;;;;56.43;31.50;;;8.50;99.90;;;;;;5010844;28;20520;-49
2021/05/01 01:43:51;;;;;;;50.45;30.23;;;8.50;99.90;;;;;;5010416;28;21063;-50
2021/05/01 01:46:16;;;;;;;57.10;32.77;;;8.40;99.90;;;;;;5010759;28;20460;-50
2021/05/01 01:48:42;;;;;;;60.90;33.08;;;8.30;99.90;;;;;;5010337;28;20385;-50
2021/05/01 01:51:08;;;;;;;57.97;33.05;;;8.30;99.90;;;;;;5010971;28;20388;-50
2021/05/01 01:53:34;;;;;;;55.90;32.30;;;8.30;99.90;;;;;;5010068;28;20907;-56
2021/05/01 01:56:00;;;;;;;57.22;32.47;;;8.30;99.90;;;;;;5010879;28;20393;-49
2021/05/01 01:58:26;;;;;;;55.45;32.10;;;8.30;99.90;;;;;;5011120;28;20385;-50
2021/05/01 02:00:52;;;;;;;59.60;33.65;;;8.20;99.90;;;;;;5010101;28;20387;-50
2021/05/01 02:03:18;;;;;;;59.90;34.10;;;8.30;99.90;;;;;;5010540;28;20477;-50
2021/05/01 02:05:45;;;;;;;58.65;33.20;;;8.30;99.90;;;;;;5009729;28;20385;-50
2021/05/01 02:08:11;;;;;;;54.13;33.25;;;8.20;99.90;;;;;;4992535;28;20397;-58
2021/05/01 02:10:38;;;;;;;59.08;32.95;;;8.20;99.90;;;;;;5009806;28;20476;-50
2021/05/01 02:13:05;;;;;;;52.30;31.70;;;8.20;99.90;;;;;;5010489;28;20409;-50
2021/05/01 02:15:31;;;;;;;53.25;31.83;;;8.10;99.90;;;;;;5010340;28;20387;-60
2021/05/01 02:17:59;;;;;;;58.38;32.45;;;8.20;99.90;;;;;;5010542;28;20381;-49
2021/05/01 02:20:30;;;;;;;58.17;33.20;;;8.20;99.90;;;;;;5010303;28;20389;-49
2021/05/01 02:22:57;;;;;;;59.20;32.40;;;5.90;99.90;;;;;;5008696;28;20408;-49
2021/05/01 02:25:23;;;;;;;57.75;33.90;;;8.20;99.90;;;;;;5010618;28;20494;-49
2021/05/01 02:27:49;;;;;;;64.70;35.13;;;8.10;99.90;;;;;;5009771;28;20389;-49
2021/05/01 02:30:18;;;;;;;67.85;35.35;;;8.10;99.90;;;;;;5010148;28;20888;-49
2021/05/01 02:32:45;;;;;;;59.95;32.55;;;8.00;99.90;;;;;;5009470;28;20408;-52
2021/05/01 02:35:13;;;;;;;60.75;32.83;;;8.00;99.90;;;;;;5009895;28;20722;-49
2021/05/01 02:37:39;;;;;;;58.55;32.70;;;7.90;99.90;;;;;;5009559;28;20373;-50
2021/05/01 02:40:07;;;;;;;62.97;35.28;;;7.90;99.90;;;;;;5010177;28;20396;-50
2021/05/01 02:42:33;;;;;;;62.42;33.45;;;7.90;99.90;;;;;;5008894;28;20440;-55
2021/05/01 02:44:58;;;;;;;67.20;35.20;;;7.90;99.90;;;;;;5010120;28;20381;-52
2021/05/01 02:47:24;;;;;;;68.53;34.97;;;7.90;99.90;;;;;;5010545;28;20388;-49
2021/05/01 02:49:50;;;;;;;62.80;34.50;;;7.90;99.90;;;;;;5007921;28;20408;-49
2021/05/01 02:52:16;;;;;;;68.67;36.63;;;7.90;99.90;;;;;;5009926;28;20601;-49
2021/05/01 02:54:41;;;;;;;63.80;34.70;;;7.80;99.90;;;;;;5008884;28;20432;-50
2021/05/01 02:57:07;;;;;;;65.40;35.93;;;7.90;99.90;;;;;;5009688;28;20379;-49
2021/05/01 02:59:32;;;;;;;64.00;34.63;;;7.80;99.90;;;;;;5009558;28;20484;-54
2021/05/01 03:01:58;;;;;;;61.80;34.73;;;7.80;99.90;;;;;;5010078;28;20373;-49
2021/05/01 03:04:24;;;;;;;64.30;35.05;;;7.70;99.90;;;;;;5009745;28;20876;-49
2021/05/01 03:06:49;;;;;;;68.07;35.25;;;7.60;99.90;;;;;;5009088;28;20381;-49
2021/05/01 03:09:15;;;;;;;69.33;36.17;;;7.50;99.90;;;;;;5009996;28;20412;-49
2021/05/01 03:11:41;;;;;;;62.50;33.53;;;7.50;99.90;;;;;;5008299;28;20439;-50
2021/05/01 03:14:07;;;;;;;64.38;35.03;;;7.40;99.90;;;;;;5009131;28;20864;-50
2021/05/01 03:16:33;;;;;;;64.47;35.08;;;7.50;99.90;;;;;;5008144;28;20400;-60
2021/05/01 03:18:59;;;;;;;68.07;35.87;;;7.40;99.90;;;;;;5009703;28;20372;-50
2021/05/01 03:21:24;;;;;;;63.40;33.97;;;7.30;99.90;;;;;;5013796;28;20769;-49
2021/05/01 03:23:51;;;;;;;65.18;33.88;;;7.20;99.90;;;;;;5013067;28;20412;-49
2021/05/01 03:26:17;;;;;;;66.82;33.70;;;7.20;99.90;;;;;;5013511;28;20442;-50
2021/05/01 03:28:44;;;;;;;63.40;33.53;;;7.20;99.90;;;;;;5011203;28;20527;-49
2021/05/01 03:31:10;;;;;;;65.85;33.85;;;7.10;99.90;;;;;;5013595;28;20423;-49
2021/05/01 03:33:36;;;;;;;74.53;36.20;;;6.90;99.90;;;;;;5012671;28;20423;-49
2021/05/01 03:36:02;;;;;;;65.38;34.60;;;6.80;99.90;;;;;;5013498;28;20377;-49
2021/05/01 03:38:27;;;;;;;69.60;34.75;;;6.80;99.90;;;;;;5012220;28;20396;-49
2021/05/01 03:40:53;;;;;;;77.07;37.03;;;6.80;99.90;;;;;;5010817;28;20412;-49
2021/05/01 03:43:20;;;;;;;75.93;37.20;;;6.70;99.90;;;;;;5012979;28;20813;-48
2021/05/01 03:45:47;;;;;;;78.53;38.08;;;6.60;99.90;;;;;;5012749;28;20460;-49
2021/05/01 03:48:12;;;;;;;72.40;35.75;;;7.30;99.90;;;;;;5013187;28;20391;-49
2021/05/01 03:50:38;;;;;;;99.05;38.03;;;6.70;99.90;;;;;;5012486;28;20381;-49
2021/05/01 03:53:04;;;;;;;71.35;35.30;;;6.60;99.90;;;;;;5011800;28;20421;-49
2021/05/01 03:55:30;;;;;;;69.10;33.43;;;6.70;99.90;;;;;;5012864;28;20409;-49
2021/05/01 03:57:56;;;;;;;61.97;32.83;;;6.70;99.90;;;;;;5012671;28;20379;-52
2021/05/01 04:00:22;;;;;;;63.47;32.00;;;6.70;99.90;;;;;;5013096;28;20380;-49
2021/05/01 04:02:48;;;;;;;62.97;31.90;;;6.80;99.90;;;;;;5012332;28;20381;-49
2021/05/01 04:05:14;;;;;;;60.47;32.08;;;6.70;99.90;;;;;;5012553;28;20408;-57
2021/05/01 04:07:40;;;;;;;54.87;30.27;;;6.70;99.90;;;;;;5011035;28;20840;-49
2021/05/01 04:10:06;;;;;;;59.60;30.13;;;6.70;99.90;;;;;;5012814;28;20451;-49
2021/05/01 04:12:32;;;;;;;60.95;31.95;;;6.80;99.90;;;;;;5012356;28;20428;-60
2021/05/01 04:14:57;;;;;;;56.53;30.17;;;6.80;99.90;;;;;;5012217;28;20385;-50
2021/05/01 04:17:23;;;;;;;54.75;28.70;;;6.80;99.90;;;;;;5012629;28;20419;-49
2021/05/01 04:19:49;;;;;;;56.07;30.57;;;6.90;99.90;;;;;;5010721;28;20958;-49
2021/05/01 04:22:25;;;;;;;54.15;28.65;;;7.30;99.90;;;;;;5012356;28;20389;-49
2021/05/01 04:24:51;;;;;;;54.60;29.73;;;7.00;99.90;;;;;;5011775;28;20868;-49
2021/05/01 04:27:18;;;;;;;47.55;28.45;;;7.00;99.90;;;;;;5012544;28;20389;-49
2021/05/01 04:29:43;;;;;;;52.20;28.87;;;7.00;99.90;;;;;;5011752;28;20880;-50
2021/05/01 04:32:09;;;;;;;53.83;29.87;;;8.10;99.90;;;;;;5011941;28;20459;-49
2021/05/01 04:34:35;;;;;;;52.35;29.30;;;7.00;99.90;;;;;;5010669;28;20480;-60
2021/05/01 04:37:01;;;;;;;52.10;29.05;;;8.10;99.90;;;;;;5012131;28;20376;-49
2021/05/01 04:39:27;;;;;;;43.80;26.60;;;7.00;99.90;;;;;;5012177;28;20400;-49
2021/05/01 04:41:53;;;;;;;44.10;26.27;;;7.00;99.90;;;;;;5010887;28;21050;-50
2021/05/01 04:44:21;;;;;;;46.38;27.38;;;7.10;99.90;;;;;;5012419;28;20389;-49
2021/05/01 04:46:50;;;;;;;49.42;27.33;;;8.60;99.90;;;;;;5011591;28;20384;-49
2021/05/01 04:49:16;;;;;;;48.03;28.45;;;7.30;99.90;;;;;;5012215;28;20883;-49
2021/05/01 04:51:42;;;;;;;45.28;27.67;;;7.50;99.90;;;;;;5011491;28;20416;-49
2021/05/01 04:54:08;;;;;;;44.07;26.73;;;7.60;99.90;;;;;;5011850;28;20890;-49
2021/05/01 04:56:33;;;;;;;41.30;27.00;;;7.50;99.90;;;;;;5011961;28;20404;-60
2021/05/01 04:58:59;;;;;;;40.80;26.03;;;7.50;99.90;;;;;;5011761;28;20792;-49
2021/05/01 05:01:25;;;;;;;46.38;28.90;;;7.70;99.90;;;;;;5012070;28;20373;-49
2021/05/01 05:03:52;;;;;;;50.78;28.83;;;7.80;99.90;;;;;;5011169;28;20412;-49
2021/05/01 05:06:17;;;;;;;45.17;27.15;;;7.90;99.90;;;;;;5010687;28;20879;-49
2021/05/01 05:08:43;;;;;;;40.45;25.80;;;7.90;99.90;;;;;;5011323;28;20396;-49
2021/05/01 05:11:09;;;;;;;39.40;25.52;;;7.90;99.90;;;;;;5011395;28;20562;-49
2021/05/01 05:13:34;;;;;;;40.17;26.70;;;8.10;99.90;;;;;;5011564;28;20448;-60
2021/05/01 05:16:00;;;;;;;36.33;24.40;;;6.50;99.90;;;;;;5010967;28;20868;-49
2021/05/01 05:18:26;;;;;;;39.13;24.90;;;8.00;99.90;;;;;;5011621;28;20373;-49
2021/05/01 05:20:52;;;;;;;39.95;25.00;;;8.10;99.90;;;;;;5009691;28;20397;-49
2021/05/01 05:23:17;;;;;;;40.25;26.27;;;8.10;99.90;;;;;;5011551;28;20814;-49
2021/05/01 05:25:43;;;;;;;41.20;25.80;;;8.10;99.90;;;;;;5010850;28;20706;-50
2021/05/01 05:28:09;;;;;;;45.35;27.50;;;8.10;99.90;;;;;;5010223;28;20783;-49
2021/05/01 05:30:35;;;;;;;44.00;27.53;;;7.90;99.90;;;;;;5011089;28;20389;-60
2021/05/01 05:33:00;;;;;;;43.13;26.65;;;7.90;99.90;;;;;;5011059;28;20460;-57
2021/05/01 05:35:26;;;;;;;40.33;25.15;;;8.00;99.90;;;;;;5011417;28;20398;-49
2021/05/01 05:37:52;;;;;;;37.15;25.20;;;8.10;99.90;;;;;;5010674;28;20389;-49
2021/05/01 05:40:18;;;;;;;40.57;25.07;;;8.20;99.90;;;;;;5010910;28;20447;-49
2021/05/01 05:42:45;;;;;;;38.65;24.42;;;8.20;99.90;;;;;;5009091;28;20918;-49
2021/05/01 05:45:13;;;;;;;37.80;24.60;;;8.20;99.90;;;;;;5011070;28;20385;-51
2021/05/01 05:47:38;;;;;;;39.88;24.88;;;8.30;99.90;;;;;;5010631;28;20381;-55
2021/05/01 05:50:05;;;;;;;44.90;26.80;;;8.50;99.90;;;;;;5011406;28;20462;-52
2021/05/01 05:52:31;;;;;;;44.45;26.67;;;8.70;99.90;;;;;;5008446;28;20898;-59
2021/05/01 05:54:59;;;;;;;45.50;27.10;;;8.90;99.90;;;;;;5013844;28;20423;-58
2021/05/01 05:57:25;;;;;;;47.43;28.33;;;8.80;99.90;;;;;;5026862;28;20435;-51
2021/05/01 05:59:51;;;;;;;50.85;28.45;;;8.80;99.90;;;;;;5009592;28;20381;-51
2021/05/01 06:02:21;;;;;;;52.92;29.65;;;8.90;99.90;;;;;;5018729;28;20465;-54
2021/05/01 06:05:16;;;;;;;49.33;28.90;;;8.90;99.90;;;;;;5029635;28;20411;-52
2021/05/01 06:07:48;;;;;;;46.58;27.45;;;8.90;99.90;;;;;;5029614;28;20379;-51
2021/05/01 06:10:14;;;;;;;50.25;29.20;;;9.10;99.90;;;;;;5026124;28;20744;-51
2021/05/01 06:12:40;;;;;;;52.07;29.90;;;9.30;99.90;;;;;;5009560;28;20420;-51
2021/05/01 06:15:12;;;;;;;51.65;29.65;;;9.60;99.90;;;;;;5010052;28;20396;-55
2021/05/01 06:17:38;;;;;;;47.13;27.80;;;9.80;99.90;;;;;;5010067;28;20459;-63
2021/05/01 06:20:05;;;;;;;45.63;28.38;;;10.00;99.90;;;;;;5010105;28;20475;-51
2021/05/01 06:22:32;;;;;;;47.17;28.43;;;10.30;99.90;;;;;;5009022;28;20388;-51
2021/05/01 06:24:59;;;;;;;46.97;29.50;;;10.40;99.90;;;;;;5009428;28;20433;-51
2021/05/01 06:27:25;;;;;;;51.90;29.83;;;10.00;99.90;;;;;;5013489;28;20423;-51
2021/05/01 06:29:50;;;;;;;50.27;28.30;;;10.10;99.90;;;;;;5029145;28;20430;-52
2021/05/01 06:32:18;;;;;;;48.75;29.30;;;10.40;99.90;;;;;;5030146;28;20443;-51
2021/05/01 06:34:55;;;;;;;47.65;29.00;;;10.50;99.90;;;;;;5029118;28;20387;-49
2021/05/01 06:37:22;;;;;;;48.47;28.60;;;10.70;99.90;;;;;;5029848;28;20392;-51
2021/05/01 06:39:49;;;;;;;46.15;28.17;;;10.60;99.90;;;;;;5027417;28;20735;-51
2021/05/01 06:42:23;;;;;;;45.53;27.85;;;10.70;99.90;;;;;;5029777;28;20423;-51
2021/05/01 06:44:59;;;;;;;42.90;26.33;;;10.70;99.90;;;;;;5028511;28;20379;-50
2021/05/01 06:47:28;;;;;;;44.53;28.05;;;10.80;99.90;;;;;;5029950;28;20387;-49
2021/05/01 06:49:59;;;;;;;42.70;26.77;;;11.00;99.90;;;;;;5027376;28;20395;-49
2021/05/01 06:52:26;;;;;;;39.42;25.83;;;11.00;99.90;;;;;;5029527;28;20403;-48
2021/05/01 06:54:52;;;;;;;41.30;27.05;;;11.30;99.90;;;;;;5027057;28;20383;-48
2021/05/01 06:57:22;;;;;;;48.33;28.88;;;11.50;99.90;;;;;;5029410;28;20387;-51
2021/05/01 07:00:00;;;;;;;40.10;25.30;;;11.40;99.90;;;;;;5028996;28;20379;-48
2021/05/01 07:02:29;;;;;;;41.90;27.10;;;11.40;99.90;;;;;;5012734;28;20457;-48
2021/05/01 07:04:58;;;;;;;41.50;25.20;;;11.60;99.90;;;;;;4988080;28;21208;-49
2021/05/01 07:07:25;;;;;;;44.15;26.15;;;11.60;99.90;;;;;;4990331;28;20384;-49
2021/05/01 07:09:51;;;;;;;38.40;25.17;;;11.90;99.90;;;;;;4989534;28;20370;-48
2021/05/01 07:12:22;;;;;;;40.38;26.10;;;11.80;99.90;;;;;;4990188;28;20414;-51
2021/05/01 07:14:48;;;;;;;40.92;24.95;;;11.90;99.90;;;;;;4989206;28;20391;-48
2021/05/01 07:17:15;;;;;;;39.60;25.10;;;11.80;99.90;;;;;;4989901;28;20396;-50
2021/05/01 07:19:42;;;;;;;39.47;26.30;;;12.00;99.90;;;;;;4989195;28;20389;-49
2021/05/01 07:22:09;;;;;;;42.85;24.10;;;11.80;99.90;;;;;;4990249;28;20458;-49
2021/05/01 07:24:35;;;;;;;37.33;23.05;;;11.70;99.90;;;;;;4989717;28;20382;-56
2021/05/01 07:27:01;;;;;;;40.73;24.87;;;11.60;99.90;;;;;;4989699;28;20456;-49
2021/05/01 07:29:32;;;;;;;41.40;25.57;;;11.40;99.90;;;;;;4989763;28;20398;-49
2021/05/01 07:31:58;;;;;;;38.88;23.30;;;11.40;99.90;;;;;;4989007;28;20657;-51
2021/05/01 07:34:27;;;;;;;39.05;24.73;;;11.30;99.90;;;;;;4989849;28;20402;-48
2021/05/01 07:36:55;;;;;;;41.75;26.08;;;11.30;99.90;;;;;;4989138;28;20414;-49
2021/05/01 07:39:24;;;;;;;43.10;25.80;;;11.10;99.90;;;;;;4989976;28;20378;-49
2021/05/01 07:41:56;;;;;;;43.95;26.73;;;11.20;99.90;;;;;;4988831;28;20414;-49
2021/05/01 07:44:33;;;;;;;39.92;25.65;;;11.30;99.90;;;;;;4989415;28;20868;-49
2021/05/01 07:47:02;;;;;;;36.53;22.95;;;11.40;99.90;;;;;;4989138;28;20465;-48
2021/05/01 07:49:28;;;;;;;32.88;21.15;;;11.40;99.90;;;;;;4989507;28;20395;-51
2021/05/01 07:51:59;;;;;;;42.03;25.77;;;11.30;99.90;;;;;;4988631;28;20397;-49
2021/05/01 07:54:25;;;;;;;34.10;22.53;;;11.30;99.90;;;;;;4989649;28;20913;-50
2021/05/01 07:56:51;;;;;;;72.10;45.10;;;11.30;99.90;;;;;;4988577;28;20397;-49
2021/05/01 07:59:16;;;;;;;204.97;120.83;;;11.40;99.90;;;;;;4989527;28;20830;-49
2021/05/01 08:01:43;;;;;;;97.40;57.53;;;11.50;99.90;;;;;;5000398;28;20406;-49
2021/05/01 08:04:11;;;;;;;107.72;68.38;;;11.40;99.90;;;;;;5028419;28;20395;-49
2021/05/01 08:06:38;;;;;;;44.53;29.93;;;11.60;99.90;;;;;;5030903;28;20474;-59
2021/05/01 08:09:04;;;;;;;36.25;24.35;;;11.60;99.90;;;;;;5032018;28;20418;-49
2021/05/01 08:11:30;;;;;;;38.67;24.27;;;11.50;99.90;;;;;;5030340;28;20426;-48
2021/05/01 08:13:55;;;;;;;38.97;24.97;;;11.60;99.90;;;;;;5031841;28;20429;-51
2021/05/01 08:16:21;;;;;;;39.67;25.65;;;11.60;99.90;;;;;;5032801;28;20386;-49
2021/05/01 08:18:47;;;;;;;40.67;25.47;;;11.30;99.90;;;;;;5030058;28;20858;-49
2021/05/01 08:21:13;;;;;;;38.20;23.38;;;11.20;99.90;;;;;;5031899;28;20390;-49
2021/05/01 08:23:38;;;;;;;41.20;25.83;;;11.20;99.90;;;;;;5031691;28;20754;-62
2021/05/01 08:26:05;;;;;;;42.20;25.92;;;11.00;99.90;;;;;;5031187;28;20443;-53
2021/05/01 08:28:32;;;;;;;45.30;27.60;;;11.00;99.90;;;;;;5032102;28;20780;-50
2021/05/01 08:30:58;;;;;;;46.08;27.67;;;10.80;99.90;;;;;;5029742;28;21224;-51
2021/05/01 08:33:23;;;;;;;45.15;27.27;;;10.70;99.90;;;;;;5031822;28;20445;-51
2021/05/01 08:35:49;;;;;;;40.07;26.33;;;10.70;99.90;;;;;;5031650;28;20387;-51
2021/05/01 08:38:15;;;;;;;45.05;26.80;;;10.70;99.90;;;;;;5030300;28;20414;-52
2021/05/01 08:40:41;;;;;;;42.80;26.50;;;10.70;99.90;;;;;;5031060;28;20438;-63
2021/05/01 08:43:06;;;;;;;43.70;27.55;;;10.70;99.90;;;;;;5031888;28;20831;-51
2021/05/01 08:45:32;;;;;;;41.87;26.30;;;10.70;99.90;;;;;;5031823;28;20391;-52
2021/05/01 08:48:00;;;;;;;46.05;28.05;;;10.70;99.90;;;;;;5031322;28;20379;-51
2021/05/01 08:50:26;;;;;;;42.80;27.08;;;10.70;99.90;;;;;;5031493;28;20390;-51
2021/05/01 08:52:55;;;;;;;44.10;27.83;;;10.90;99.90;;;;;;5029384;28;20399;-51
2021/05/01 08:55:26;;;;;;;40.58;25.55;;;10.70;99.90;;;;;;5031342;28;20949;-50
2021/05/01 08:57:52;;;;;;;40.53;25.63;;;10.60;99.90;;;;;;5030883;28;20387;-55
2021/05/01 09:00:18;;;;;;;45.92;28.42;;;10.70;99.90;;;;;;5032215;28;20399;-50
2021/05/01 09:02:44;;;;;;;42.72;25.42;;;10.80;99.90;;;;;;5016375;28;20393;-51
2021/05/01 09:05:12;;;;;;;42.75;24.95;;;10.80;99.90;;;;;;5010405;28;20825;-56
2021/05/01 09:07:42;;;;;;;44.15;26.17;;;10.80;99.90;;;;;;5010200;28;20389;-52
2021/05/01 09:10:09;;;;;;;47.45;30.05;;;10.80;99.90;;;;;;5011545;28;20399;-57
2021/05/01 09:12:47;;;;;;;45.30;27.67;;;10.80;99.90;;;;;;5011152;28;20409;-51
2021/05/01 09:15:31;;;;;;;42.55;26.50;;;10.90;99.90;;;;;;5008845;28;20415;-55
2021/05/01 09:17:59;;;;;;;46.65;29.15;;;11.10;99.90;;;;;;4992168;28;20382;-56
2021/05/01 09:20:25;;;;;;;48.90;29.13;;;11.20;99.90;;;;;;4992550;28;20378;-48
2021/05/01 09:22:55;;;;;;;55.15;35.78;;;11.00;99.90;;;;;;4991067;28;20382;-51
2021/05/01 09:25:22;;;;;;;64.80;43.08;;;10.90;99.90;;;;;;4990367;28;20403;-51
2021/05/01 09:28:06;;;;;;;45.60;29.10;;;10.90;99.90;;;;;;4989863;28;20774;-53
2021/05/01 09:30:35;;;;;;;65.07;38.80;;;11.00;99.90;;;;;;4990007;28;20418;-53
2021/05/01 09:33:30;;;;;;;54.03;33.63;;;10.90;99.90;;;;;;4990907;28;20402;-50
2021/05/01 09:36:16;;;;;;;50.73;30.50;;;11.00;99.90;;;;;;4989534;28;20406;-51
2021/05/01 09:38:46;;;;;;;47.97;28.40;;;10.90;99.90;;;;;;4990565;28;20417;-63
2021/05/01 09:41:24;;;;;;;47.78;30.85;;;11.10;99.90;;;;;;4989738;28;20422;-49
2021/05/01 09:44:15;;;;;;;51.88;36.88;;;11.40;99.90;;;;;;4990557;28;20533;-50
2021/05/01 09:46:52;;;;;;;42.88;27.83;;;11.20;99.90;;;;;;5004660;28;20412;-60
2021/05/01 09:49:24;;;;;;;41.00;28.33;;;11.40;99.90;;;;;;5025451;28;20425;-48
2021/05/01 09:52:08;;;;;;;44.00;27.42;;;11.30;99.90;;;;;;5029692;28;20383;-54
2021/05/01 09:54:47;;;;;;;40.55;25.98;;;11.10;99.90;;;;;;5030504;28;20394;-53
2021/05/01 09:57:14;;;;;;;42.88;27.58;;;11.00;99.90;;;;;;5030685;28;20383;-48
2021/05/01 09:59:54;;;;;;;42.40;26.88;;;11.40;99.90;;;;;;5030160;28;20407;-58
2021/05/01 10:02:40;;;;;;;42.58;26.33;;;11.50;99.90;;;;;;5019341;28;20393;-49
2021/05/01 10:05:11;;;;;;;43.53;26.85;;;11.50;99.90;;;;;;5008468;28;20425;-48
2021/05/01 10:07:41;;;;;;;44.97;28.92;;;11.40;99.90;;;;;;5009237;28;20404;-49
2021/05/01 10:10:08;;;;;;;44.85;29.45;;;11.40;99.90;;;;;;5010017;28;20463;-50
2021/05/01 10:12:36;;;;;;;47.70;29.05;;;11.30;99.90;;;;;;5010522;28;20500;-49
2021/05/01 10:15:24;;;;;;;44.10;28.45;;;11.40;99.90;;;;;;5009102;28;20676;-49
2021/05/01 10:17:50;;;;;;;42.88;28.38;;;11.50;99.90;;;;;;5009657;28;20392;-49
2021/05/01 10:20:17;;;;;;;44.70;28.88;;;11.40;99.90;;;;;;5010456;28;20392;-49
2021/05/01 10:22:44;;;;;;;47.08;29.08;;;11.40;99.90;;;;;;5009754;28;20396;-61
2021/05/01 10:25:32;;;;;;;41.47;27.02;;;11.40;99.90;;;;;;5010123;28;20385;-49
2021/05/01 10:28:06;;;;;;;47.45;29.08;;;11.40;99.90;;;;;;5008120;28;20456;-49
2021/05/01 10:30:39;;;;;;;48.40;28.95;;;11.70;99.90;;;;;;5008850;28;20476;-49
2021/05/01 10:33:17;;;;;;;43.33;28.35;;;11.90;99.90;;;;;;5009240;28;20401;-49
2021/05/01 10:36:17;;;;;;;45.72;28.98;;;12.00;99.90;;;;;;5009508;28;20465;-61
2021/05/01 10:38:43;;;;;;;42.90;28.77;;;12.00;99.90;;;;;;5009387;28;20395;-60
2021/05/01 10:41:17;;;;;;;43.70;27.48;;;12.40;99.90;;;;;;5009399;28;20868;-49
2021/05/01 10:43:52;;;;;;;41.65;27.75;;;12.60;99.90;;;;;;5009113;28;20408;-62
2021/05/01 10:46:23;;;;;;;45.47;28.17;;;12.60;99.90;;;;;;5009449;28;20401;-49
2021/05/01 10:48:50;;;;;;;45.55;28.48;;;12.70;99.90;;;;;;5009272;28;20401;-49
2021/05/01 10:51:25;;;;;;;44.63;28.33;;;12.90;99.90;;;;;;5010085;28;20393;-50
2021/05/01 10:54:10;;;;;;;45.22;28.55;;;12.80;99.90;;;;;;5009075;28;20503;-49
2021/05/01 10:56:47;;;;;;;43.10;28.02;;;12.70;99.90;;;;;;5010039;28;20404;-48
2021/05/01 10:59:19;;;;;;;42.92;27.75;;;12.80;99.90;;;;;;5009686;28;20519;-50
2021/05/01 11:01:47;;;;;;;41.75;27.45;;;12.70;99.90;;;;;;5014775;28;20390;-60
2021/05/01 11:04:17;;;;;;;45.17;27.77;;;12.80;99.90;;;;;;5029402;28;20392;-49
2021/05/01 11:06:58;;;;;;;44.72;28.45;;;12.90;99.90;;;;;;5023509;28;20392;-61
2021/05/01 11:09:39;;;;;;;38.67;26.80;;;13.00;99.90;;;;;;5010135;28;20462;-49
2021/05/01 11:12:15;;;;;;;42.77;26.30;;;12.90;99.90;;;;;;5008979;28;21244;-49
2021/05/01 11:15:00;;;;;;;43.55;26.27;;;12.90;99.90;;;;;;5008324;28;20464;-61
2021/05/01 11:17:31;;;;;;;41.80;27.10;;;12.60;99.90;;;;;;5009794;28;20464;-48
2021/05/01 11:20:17;;;;;;;40.67;27.50;;;12.40;99.90;;;;;;5007368;28;20415;-48
2021/05/01 11:22:45;;;;;;;41.20;28.17;;;12.30;99.90;;;;;;5009050;28;20784;-61
2021/05/01 11:25:13;;;;;;;37.80;25.83;;;12.40;99.90;;;;;;5007513;28;20475;-49
2021/05/01 11:27:40;;;;;;;40.25;26.75;;;12.60;99.90;;;;;;4997316;28;20412;-49
2021/05/01 11:30:07;;;;;;;42.88;28.98;;;13.00;99.90;;;;;;4988702;28;20691;-49
2021/05/01 11:32:33;;;;;;;36.30;25.13;;;13.10;99.90;;;;;;4989902;28;20410;-49
2021/05/01 11:35:25;;;;;;;40.00;26.67;;;13.30;99.90;;;;;;4988323;28;20913;-48
2021/05/01 11:37:56;;;;;;;41.50;26.33;;;13.50;99.90;;;;;;4987673;28;20401;-49
2021/05/01 11:40:25;;;;;;;39.00;25.83;;;13.40;99.90;;;;;;4990316;28;20448;-49
2021/05/01 11:42:54;;;;;;;37.53;26.25;;;13.50;99.90;;;;;;4992951;28;20429;-49
2021/05/01 11:45:25;;;;;;;39.65;26.27;;;13.30;99.90;;;;;;4993426;28;20386;-49
2021/05/01 11:47:53;;;;;;;40.90;25.90;;;13.30;99.90;;;;;;4992957;28;20391;-49
2021/05/01 11:50:21;;;;;;;38.72;24.75;;;13.20;99.90;;;;;;4992417;28;20413;-48
2021/05/01 11:52:46;;;;;;;40.97;27.30;;;13.00;99.90;;;;;;4992538;28;20418;-49
2021/05/01 11:55:29;;;;;;;38.63;26.63;;;13.00;99.90;;;;;;4993517;28;20401;-49
2021/05/01 11:57:57;;;;;;;36.55;25.65;;;13.20;99.90;;;;;;4992604;28;20378;-50
2021/05/01 12:00:39;;;;;;;39.35;26.25;;;13.40;99.90;;;;;;4975732;28;20461;-49
2021/05/01 12:03:29;;;;;;;38.45;25.55;;;13.50;99.90;;;;;;5026783;28;20372;-49
2021/05/01 12:06:12;;;;;;;37.65;25.30;;;13.60;99.90;;;;;;5032099;28;20391;-48
2021/05/01 12:08:39;;;;;;;37.67;24.15;;;13.40;99.90;;;;;;5032448;28;20383;-49
2021/05/01 12:11:08;;;;;;;36.63;26.00;;;13.70;99.90;;;;;;5031415;28;20478;-49
2021/05/01 12:13:41;;;;;;;39.40;25.90;;;13.90;99.90;;;;;;5032249;28;20404;-49
2021/05/01 12:16:20;;;;;;;38.30;24.90;;;13.90;99.90;;;;;;5031555;28;20377;-51
2021/05/01 12:18:56;;;;;;;36.05;24.17;;;13.70;99.90;;;;;;5031764;28;20888;-49
2021/05/01 12:21:24;;;;;;;37.95;25.05;;;13.60;99.90;;;;;;5031256;28;20399;-50
2021/05/01 12:23:52;;;;;;;38.00;24.42;;;13.70;99.90;;;;;;5030022;28;20387;-50
2021/05/01 12:26:33;;;;;;;38.15;25.60;;;13.60;99.90;;;;;;5032509;28;20391;-52
2021/05/01 12:29:17;;;;;;;37.55;24.25;;;13.30;99.90;;;;;;5031550;28;20394;-50
2021/05/01 12:31:47;;;;;;;36.50;24.00;;;13.20;99.90;;;;;;5031840;28;20375;-66
2021/05/01 12:34:14;;;;;;;38.85;25.30;;;13.30;99.90;;;;;;5031818;28;20896;-50
2021/05/01 12:36:45;;;;;;;39.47;26.10;;;13.20;99.90;;;;;;5014021;28;20399;-50
2021/05/01 12:39:12;;;;;;;41.10;26.65;;;13.20;99.90;;;;;;5030361;28;20797;-50